createdAt,value
2022-09-23T00:02:11.755Z,100489.97
2022-09-23T00:05:14.651Z,100506.38
2022-09-23T00:08:16.852Z,100501.53
2022-09-23T00:11:24.294Z,100510.25
2022-09-23T00:14:27.157Z,100491.00
2022-09-23T00:17:29.430Z,100505.44
2022-09-23T00:20:33.992Z,100499.72
2022-09-23T00:23:36.505Z,100502.59
2022-09-23T00:26:38.731Z,100504.00
2022-09-23T00:29:41.272Z,100498.66
2022-09-23T00:32:43.526Z,100494.34
2022-09-23T00:35:45.941Z,100497.00
2022-09-23T00:38:48.375Z,100483.19
2022-09-23T00:41:50.658Z,100472.53
2022-09-23T00:44:58.484Z,100484.81
2022-09-23T00:48:02.294Z,100479.16
2022-09-23T00:51:04.915Z,100478.00
2022-09-23T00:54:07.877Z,100463.44
2022-09-23T00:57:11.226Z,100462.03
2022-09-23T01:00:14.099Z,100483.25
2022-09-23T01:03:16.404Z,100480.72
2022-09-23T01:06:18.653Z,100475.00
2022-09-23T01:09:22.320Z,100480.25
2022-09-23T01:12:39.601Z,100486.16
2022-09-23T01:15:49.280Z,100481.22
2022-09-23T01:19:01.869Z,100474.31
2022-09-23T01:22:11.004Z,100483.72
2022-09-23T01:25:28.760Z,100490.72
2022-09-23T01:28:43.390Z,100486.31
2022-09-23T01:32:00.288Z,100474.66
2022-09-23T01:35:08.416Z,100481.19
2022-09-23T01:38:13.215Z,100484.88
2022-09-23T01:41:24.228Z,100487.09
2022-09-23T01:44:30.811Z,100481.97
2022-09-23T01:47:40.274Z,100473.84
2022-09-23T01:50:59.228Z,100482.28
2022-09-23T01:54:15.959Z,100467.41
2022-09-23T01:57:34.479Z,100471.03
2022-09-23T02:00:41.030Z,100476.41
2022-09-23T02:04:22.503Z,100478.41
2022-09-23T02:07:53.706Z,100471.34
2022-09-23T02:10:59.112Z,100473.78
2022-09-23T02:14:15.482Z,100473.53
2022-09-23T02:17:24.721Z,100464.91
2022-09-23T02:20:33.000Z,100464.69
2022-09-23T02:23:45.018Z,100454.75
2022-09-23T02:26:51.801Z,100478.09
2022-09-23T02:30:09.781Z,100472.50
2022-09-23T02:33:21.315Z,100471.94
2022-09-23T02:36:32.339Z,100475.63
2022-09-23T02:39:42.790Z,100477.69
2022-09-23T02:42:44.944Z,100467.25
2022-09-23T02:45:47.665Z,100470.72
2022-09-23T02:48:53.507Z,100463.78
2022-09-23T02:51:56.892Z,100465.78
2022-09-23T02:55:00.926Z,100469.06
2022-09-23T02:58:03.843Z,100466.44
2022-09-23T03:01:11.697Z,100470.53
2022-09-23T03:04:32.086Z,100471.50
2022-09-23T03:07:53.044Z,100476.47
2022-09-23T03:11:07.522Z,100461.97
2022-09-23T03:14:19.853Z,100468.31
2022-09-23T03:17:27.577Z,100464.66
2022-09-23T03:20:37.369Z,100479.94
2022-09-23T03:23:41.198Z,100477.69
2022-09-23T03:26:45.864Z,100475.09
2022-09-23T03:29:49.742Z,100475.75
2022-09-23T03:32:52.375Z,100467.16
2022-09-23T03:36:24.473Z,100478.53
2022-09-23T03:39:44.504Z,100470.25
2022-09-23T03:42:50.189Z,100469.44
2022-09-23T03:45:57.571Z,100481.28
2022-09-23T03:49:07.204Z,100473.03
2022-09-23T03:52:09.778Z,100461.47
2022-09-23T03:55:12.049Z,100462.41
2022-09-23T03:58:14.577Z,100455.91
2022-09-23T04:01:16.918Z,100468.72
2022-09-23T04:04:19.237Z,100472.19
2022-09-23T04:07:21.481Z,100478.75
2022-09-23T04:10:24.122Z,100476.19
2022-09-23T04:13:26.405Z,100480.09
2022-09-23T04:16:29.114Z,100488.19
2022-09-23T04:19:31.367Z,100483.69
2022-09-23T04:22:35.060Z,100488.19
2022-09-23T04:25:44.773Z,100484.88
2022-09-23T04:28:46.975Z,100482.63
2022-09-23T04:31:50.059Z,100491.59
2022-09-23T04:34:52.329Z,100496.31
2022-09-23T04:37:54.534Z,100492.66
2022-09-23T04:40:57.101Z,100482.72
2022-09-23T04:43:59.419Z,100470.00
2022-09-23T04:47:01.731Z,100487.59
2022-09-23T04:50:04.177Z,100494.50
2022-09-23T04:53:06.480Z,100494.25
2022-09-23T04:56:12.043Z,100481.84
2022-09-23T04:59:14.426Z,100483.41
2022-09-23T05:02:16.889Z,100493.28
2022-09-23T05:05:21.053Z,100496.50
2022-09-23T05:08:23.266Z,100493.94
2022-09-23T05:11:26.147Z,100508.06
2022-09-23T05:14:28.343Z,100501.06
2022-09-23T05:17:31.297Z,100502.44
2022-09-23T05:20:33.539Z,100512.19
2022-09-23T05:23:36.432Z,100520.50
2022-09-23T05:26:38.696Z,100513.59
2022-09-23T05:29:41.100Z,100516.41
2022-09-23T05:32:43.481Z,100510.16
2022-09-23T05:35:48.633Z,100526.44
2022-09-23T05:38:51.439Z,100527.91
2022-09-23T05:41:55.622Z,100516.53
2022-09-23T05:44:57.828Z,100517.72
2022-09-23T05:48:00.007Z,100525.91
2022-09-23T05:51:02.989Z,100523.44
2022-09-23T05:54:05.775Z,100526.63
2022-09-23T05:57:08.132Z,100527.44
2022-09-23T06:00:11.011Z,100521.81
2022-09-23T06:03:20.867Z,100529.63
2022-09-23T06:06:31.371Z,100524.03
2022-09-23T06:09:36.486Z,100511.13
2022-09-23T06:12:39.199Z,100517.66
2022-09-23T06:15:41.768Z,100524.94
2022-09-23T06:18:45.303Z,100515.09
2022-09-23T06:21:48.815Z,100519.66
2022-09-23T06:24:51.020Z,100511.34
2022-09-23T06:27:57.200Z,100535.69
2022-09-23T06:31:00.726Z,100525.34
2022-09-23T06:34:10.465Z,100513.91
2022-09-23T06:37:19.795Z,100523.56
2022-09-23T06:40:22.845Z,100526.66
2022-09-23T06:43:26.021Z,100536.03
2022-09-23T06:46:28.314Z,100533.50
2022-09-23T06:49:31.520Z,100516.50
2022-09-23T06:52:34.437Z,100529.44
2022-09-23T06:55:36.662Z,100539.34
2022-09-23T06:58:39.201Z,100548.31
2022-09-23T07:01:41.700Z,100548.00
2022-09-23T07:04:44.102Z,100542.97
2022-09-23T07:07:46.397Z,100539.84
2022-09-23T07:11:02.268Z,100525.53
2022-09-23T07:14:04.620Z,100532.22
2022-09-23T07:17:07.355Z,100528.75
2022-09-23T07:20:11.511Z,100543.13
2022-09-23T07:23:13.765Z,100546.50
2022-09-23T07:26:18.053Z,100548.03
2022-09-23T07:29:20.313Z,100540.03
2022-09-23T07:32:23.234Z,100537.44
2022-09-23T07:35:28.136Z,100542.22
2022-09-23T07:38:31.439Z,100544.41
2022-09-23T07:41:34.094Z,100540.88
2022-09-23T07:44:36.322Z,100537.38
2022-09-23T07:47:39.977Z,100543.59
2022-09-23T07:50:42.230Z,100543.34
2022-09-23T07:53:48.363Z,100534.66
2022-09-23T07:56:50.568Z,100531.16
2022-09-23T07:59:53.041Z,100532.78
2022-09-23T08:02:55.222Z,100537.88
2022-09-23T08:06:05.519Z,100537.56
2022-09-23T08:09:07.738Z,100534.06
2022-09-23T08:12:17.145Z,100525.97
2022-09-23T08:15:19.359Z,100535.91
2022-09-23T08:18:23.938Z,100533.41
2022-09-23T08:21:26.177Z,100522.56
2022-09-23T08:24:30.400Z,100524.00
2022-09-23T08:27:33.399Z,100521.00
2022-09-23T08:30:35.764Z,100525.41
2022-09-23T08:33:37.993Z,100518.00
2022-09-23T08:36:40.163Z,100527.59
2022-09-23T08:39:42.373Z,100519.22
2022-09-23T08:42:45.697Z,100505.06
2022-09-23T08:45:48.115Z,100520.06
2022-09-23T08:48:50.486Z,100514.13
2022-09-23T08:51:54.892Z,100525.28
2022-09-23T08:54:57.170Z,100525.69
2022-09-23T08:58:27.846Z,100516.59
2022-09-23T09:01:46.029Z,100522.69
2022-09-23T09:04:52.497Z,100506.69
2022-09-23T09:07:58.077Z,100507.56
2022-09-23T09:11:00.873Z,100518.09
2022-09-23T09:14:18.250Z,100521.75
2022-09-23T09:17:39.905Z,100507.72
2022-09-23T09:21:02.751Z,100511.25
2022-09-23T09:24:27.060Z,100512.06
2022-09-23T09:27:29.385Z,100505.22
2022-09-23T09:30:33.038Z,100499.72
2022-09-23T09:33:47.662Z,100502.66
2022-09-23T09:37:07.533Z,100506.75
2022-09-23T09:40:13.817Z,100509.28
2022-09-23T09:43:23.250Z,100511.81
2022-09-23T09:47:01.456Z,100505.06
2022-09-23T09:50:10.614Z,100496.50
2022-09-23T09:53:35.849Z,100489.19
2022-09-23T09:56:39.982Z,100483.44
2022-09-23T09:59:44.148Z,100486.66
2022-09-23T10:02:46.812Z,100489.41
2022-09-23T10:05:52.368Z,100468.19
2022-09-23T10:09:13.860Z,100475.81
2022-09-23T10:12:18.783Z,100474.22
2022-09-23T10:15:44.892Z,100471.34
2022-09-23T10:18:47.471Z,100475.41
2022-09-23T10:22:00.229Z,100462.91
2022-09-23T10:25:07.991Z,100482.56
2022-09-23T10:28:32.276Z,100471.22
2022-09-23T10:31:35.932Z,100471.47
2022-09-23T10:34:43.481Z,100467.03
2022-09-23T10:37:52.938Z,100466.94
2022-09-23T10:41:15.688Z,100473.69
2022-09-23T10:44:50.294Z,100466.66
2022-09-23T10:48:21.830Z,100458.72
2022-09-23T10:51:33.659Z,100468.31
2022-09-23T10:54:58.258Z,100458.09
2022-09-23T10:58:10.407Z,100447.09
2022-09-23T11:01:17.204Z,100455.63
2022-09-23T11:04:37.197Z,100444.34
2022-09-23T11:07:45.117Z,100445.34
2022-09-23T11:11:11.529Z,100426.28
2022-09-23T11:14:25.950Z,100431.56
2022-09-23T11:17:35.224Z,100430.81
2022-09-23T11:21:04.736Z,100429.50
2022-09-23T11:24:22.153Z,100424.22
2022-09-23T11:27:39.370Z,100424.56
2022-09-23T11:31:07.275Z,100425.75
2022-09-23T11:34:26.052Z,100420.09
2022-09-23T11:37:41.241Z,100399.03
2022-09-23T11:40:46.627Z,100413.75
2022-09-23T11:43:53.478Z,100408.13
2022-09-23T11:47:07.763Z,100398.88
2022-09-23T11:50:25.789Z,100393.75
2022-09-23T11:53:38.231Z,100383.94
2022-09-23T11:56:48.257Z,100385.00
2022-09-23T11:59:57.301Z,100389.88
2022-09-23T12:03:06.020Z,100394.47
2022-09-23T12:06:16.124Z,100389.38
2022-09-23T12:09:56.787Z,100402.63
2022-09-23T12:13:00.939Z,100382.78
2022-09-23T12:16:25.049Z,100391.06
2022-09-23T12:19:33.255Z,100389.47
2022-09-23T12:22:39.174Z,100384.41
2022-09-23T12:25:54.895Z,100377.47
2022-09-23T12:29:01.592Z,100376.38
2022-09-23T12:32:09.975Z,100367.50
2022-09-23T12:35:32.229Z,100376.50
2022-09-23T12:39:04.406Z,100366.81
2022-09-23T12:42:15.655Z,100344.91
2022-09-23T12:45:28.234Z,100358.91
2022-09-23T12:49:08.259Z,100362.94
2022-09-23T12:52:14.186Z,100363.22
2022-09-23T12:55:23.231Z,100353.22
2022-09-23T12:58:38.344Z,100337.81
2022-09-23T13:01:41.115Z,100336.75
2022-09-23T13:05:21.800Z,100334.38
2022-09-23T13:08:25.037Z,100341.13
2022-09-23T13:11:29.417Z,100338.38
2022-09-23T13:14:32.803Z,100320.31
2022-09-23T13:17:39.830Z,100332.13
2022-09-23T13:20:42.058Z,100332.94
2022-09-23T13:24:12.804Z,100327.53
2022-09-23T13:27:38.204Z,100325.38
2022-09-23T13:30:49.286Z,100317.47
2022-09-23T13:34:00.754Z,100321.13
2022-09-23T13:37:22.475Z,100310.31
2022-09-23T13:40:29.423Z,100305.03
2022-09-23T13:43:41.366Z,100294.75
2022-09-23T13:46:47.503Z,100300.56
2022-09-23T13:49:49.916Z,100313.34
2022-09-23T13:53:00.201Z,100310.69
2022-09-23T13:56:10.184Z,100321.00
2022-09-23T13:59:41.030Z,100322.66
2022-09-23T14:02:44.061Z,100317.31
2022-09-23T14:05:46.507Z,100317.31
2022-09-23T14:08:50.292Z,100308.47
2022-09-23T14:11:52.694Z,100308.47
2022-09-23T14:14:55.036Z,100296.88
2022-09-23T14:18:06.466Z,100299.06
2022-09-23T14:21:30.431Z,100312.00
2022-09-23T14:24:37.036Z,100301.75
2022-09-23T14:27:41.048Z,100293.66
2022-09-23T14:30:46.204Z,100296.91
2022-09-23T14:33:48.527Z,100293.09
2022-09-23T14:37:09.405Z,100297.94
2022-09-23T14:40:18.243Z,100296.38
2022-09-23T14:43:25.842Z,100287.75
2022-09-23T14:46:30.271Z,100294.78
2022-09-23T14:49:32.769Z,100278.59
2022-09-23T14:52:34.975Z,100278.06
2022-09-23T14:55:37.293Z,100279.66
2022-09-23T14:58:57.115Z,100287.22
2022-09-23T15:01:59.335Z,100277.50
2022-09-23T15:05:31.231Z,100276.44
2022-09-23T15:08:33.897Z,100285.88
2022-09-23T15:11:36.320Z,100272.91
2022-09-23T15:14:41.598Z,100283.44
2022-09-23T15:17:44.325Z,100267.53
2022-09-23T15:21:07.510Z,100271.56
2022-09-23T15:24:36.358Z,100278.28
2022-09-23T15:27:38.582Z,100282.38
2022-09-23T15:30:41.278Z,100269.41
2022-09-23T15:33:50.717Z,100271.03
2022-09-23T15:36:54.085Z,100264.56
2022-09-23T15:39:56.356Z,100268.34
2022-09-23T15:43:01.263Z,100263.22
2022-09-23T15:46:08.982Z,100265.34
2022-09-23T15:49:28.422Z,100260.47
2022-09-23T15:52:30.633Z,100255.34
2022-09-23T15:55:33.799Z,100262.91
2022-09-23T15:58:36.049Z,100249.47
2022-09-23T16:01:38.828Z,100260.22
2022-09-23T16:04:41.092Z,100268.00
2022-09-23T16:07:43.331Z,100250.47
2022-09-23T16:10:45.583Z,100256.91
2022-09-23T16:13:47.850Z,100255.53
2022-09-23T16:16:50.148Z,100262.78
2022-09-23T16:19:55.883Z,100270.88
2022-09-23T16:23:01.479Z,100267.63
2022-09-23T16:26:26.985Z,100261.41
2022-09-23T16:29:29.259Z,100257.63
2022-09-23T16:32:31.492Z,100268.09
2022-09-23T16:35:33.822Z,100277.72
2022-09-23T16:38:36.121Z,100262.06
2022-09-23T16:41:38.453Z,100269.88
2022-09-23T16:44:41.560Z,100269.06
2022-09-23T16:47:45.301Z,100263.41
2022-09-23T16:50:47.774Z,100263.66
2022-09-23T16:53:51.102Z,100278.19
2022-09-23T16:56:55.213Z,100261.81
2022-09-23T17:00:16.122Z,100256.06
2022-09-23T17:03:37.010Z,100264.44
2022-09-23T17:06:50.063Z,100266.63
2022-09-23T17:09:52.622Z,100274.69
2022-09-23T17:12:54.867Z,100274.38
2022-09-23T17:15:57.190Z,100262.03
2022-09-23T17:19:00.410Z,100263.88
2022-09-23T17:22:02.711Z,100255.50
2022-09-23T17:25:05.426Z,100269.50
2022-09-23T17:28:07.668Z,100271.88
2022-09-23T17:31:09.977Z,100270.75
2022-09-23T17:34:12.864Z,100281.81
2022-09-23T17:37:15.114Z,100277.97
2022-09-23T17:40:18.032Z,100277.84
2022-09-23T17:43:25.336Z,100265.34
2022-09-23T17:46:30.087Z,100275.94
2022-09-23T17:49:35.174Z,100274.50
2022-09-23T17:52:37.400Z,100282.19
2022-09-23T17:55:39.657Z,100281.72
2022-09-23T17:58:42.661Z,100289.91
2022-09-23T18:01:44.939Z,100292.66
2022-09-23T18:04:47.295Z,100281.41
